createdAt,value
2022-11-16T00:01:01.775Z,98863.72
2022-11-16T00:04:04.577Z,98865.53
2022-11-16T00:07:07.409Z,98865.06
2022-11-16T00:10:11.326Z,98850.19
2022-11-16T00:13:15.572Z,98860.53
2022-11-16T00:16:19.231Z,98854.69
2022-11-16T00:19:21.991Z,98841.88
2022-11-16T00:22:24.732Z,98852.00
2022-11-16T00:25:27.452Z,98841.50
2022-11-16T00:28:32.103Z,98839.50
2022-11-16T00:31:34.995Z,98837.66
2022-11-16T00:34:37.823Z,98822.84
2022-11-16T00:37:40.539Z,98820.34
2022-11-16T00:40:43.275Z,98813.47
2022-11-16T00:43:47.421Z,98810.16
2022-11-16T00:46:50.136Z,98810.81
2022-11-16T00:49:52.864Z,98810.16
2022-11-16T00:52:55.646Z,98813.81
2022-11-16T00:55:58.443Z,98804.16
2022-11-16T00:59:02.605Z,98804.16
2022-11-16T01:02:05.374Z,98793.47
2022-11-16T01:05:08.672Z,98795.47
2022-11-16T01:08:11.593Z,98780.28
2022-11-16T01:11:32.497Z,98780.44
2022-11-16T01:14:36.620Z,98778.09
2022-11-16T01:17:40.165Z,98781.06
2022-11-16T01:20:42.966Z,98775.72
2022-11-16T01:23:45.758Z,98764.06
2022-11-16T01:26:48.527Z,98763.41
2022-11-16T01:29:52.708Z,98768.91
2022-11-16T01:32:55.391Z,98765.41
2022-11-16T01:35:58.148Z,98759.25
2022-11-16T01:39:00.906Z,98747.88
2022-11-16T01:42:03.810Z,98751.41
2022-11-16T01:45:20.106Z,98744.25
2022-11-16T01:48:25.943Z,98741.72
2022-11-16T01:51:29.078Z,98740.41
2022-11-16T01:54:33.979Z,98742.06
2022-11-16T01:57:39.138Z,98743.06
2022-11-16T02:00:43.248Z,98734.22
2022-11-16T02:03:46.076Z,98741.41
2022-11-16T02:07:00.080Z,98744.94
2022-11-16T02:10:08.818Z,98739.44
2022-11-16T02:13:18.937Z,98727.97
2022-11-16T02:16:30.376Z,98733.31
2022-11-16T02:19:46.285Z,98727.13
2022-11-16T02:22:57.055Z,98717.75
2022-11-16T02:26:08.322Z,98716.78
2022-11-16T02:29:17.488Z,98717.78
2022-11-16T02:32:21.944Z,98703.75
2022-11-16T02:35:26.539Z,98706.75
2022-11-16T02:38:29.891Z,98700.41
2022-11-16T02:41:34.260Z,98702.22
2022-11-16T02:44:41.451Z,98700.72
2022-11-16T02:47:46.096Z,98705.06
2022-11-16T02:50:52.773Z,98697.19
2022-11-16T02:54:00.416Z,98700.53
2022-11-16T02:57:23.707Z,98696.88
2022-11-16T03:00:29.282Z,98698.03
2022-11-16T03:03:35.712Z,98694.38
2022-11-16T03:06:41.569Z,98686.34
2022-11-16T03:09:46.701Z,98686.69
2022-11-16T03:12:48.477Z,98694.34
2022-11-16T03:15:55.276Z,98682.53
2022-11-16T03:19:00.598Z,98674.97
2022-11-16T03:22:06.902Z,98676.84
2022-11-16T03:25:10.962Z,98673.34
2022-11-16T03:28:16.360Z,98663.00
2022-11-16T03:31:22.677Z,98666.53
2022-11-16T03:34:28.566Z,98675.06
2022-11-16T03:37:32.463Z,98672.22
2022-11-16T03:40:36.317Z,98671.06
2022-11-16T03:43:39.946Z,98665.72
2022-11-16T03:46:44.539Z,98668.06
2022-11-16T03:49:47.768Z,98666.75
2022-11-16T03:52:50.470Z,98660.75
2022-11-16T03:55:53.206Z,98656.56
2022-11-16T03:58:56.069Z,98658.75
2022-11-16T04:02:00.139Z,98658.25
2022-11-16T04:05:20.631Z,98648.06
2022-11-16T04:08:40.955Z,98645.94
2022-11-16T04:12:01.378Z,98651.09
2022-11-16T04:15:21.826Z,98640.91
2022-11-16T04:18:43.513Z,98646.78
2022-11-16T04:22:06.105Z,98646.28
2022-11-16T04:25:11.514Z,98629.44
2022-11-16T04:28:13.940Z,98628.06
2022-11-16T04:31:42.763Z,98629.25
2022-11-16T04:35:04.331Z,98634.09
2022-11-16T04:38:07.130Z,98633.41
2022-11-16T04:41:30.240Z,98628.41
2022-11-16T04:44:49.418Z,98627.06
2022-11-16T04:47:52.361Z,98624.75
2022-11-16T04:50:56.518Z,98633.06
2022-11-16T04:53:59.251Z,98635.25
2022-11-16T04:57:01.962Z,98635.41
2022-11-16T05:00:05.389Z,98634.06
2022-11-16T05:03:08.115Z,98630.56
2022-11-16T05:06:12.146Z,98631.75
2022-11-16T05:09:15.110Z,98621.38
2022-11-16T05:12:18.773Z,98620.38
2022-11-16T05:15:21.495Z,98625.53
2022-11-16T05:18:24.185Z,98612.56
2022-11-16T05:21:27.256Z,98622.41
2022-11-16T05:24:36.267Z,98616.41
2022-11-16T05:27:39.047Z,98619.22
2022-11-16T05:30:41.813Z,98618.56
2022-11-16T05:33:44.615Z,98620.38
2022-11-16T05:36:48.771Z,98622.22
2022-11-16T05:39:51.501Z,98627.03
2022-11-16T05:42:54.273Z,98625.22
2022-11-16T05:45:56.920Z,98616.38
2022-11-16T05:48:59.654Z,98616.53
2022-11-16T09:54:16.013Z,98513.28
2022-11-16T15:40:17.462Z,98404.91
2022-11-16T15:43:21.530Z,98409.06
2022-11-16T15:46:26.124Z,98401.16
2022-11-16T15:49:30.430Z,98405.63
2022-11-16T15:52:42.907Z,98404.53
2022-11-16T15:55:50.910Z,98403.41
2022-11-16T15:58:54.088Z,98411.25
2022-11-16T16:01:57.252Z,98399.47
2022-11-16T16:05:00.013Z,98407.25
2022-11-16T16:08:03.612Z,98396.53
2022-11-16T16:11:10.419Z,98391.03
2022-11-16T16:14:22.202Z,98388.75
2022-11-16T16:17:25.832Z,98389.44
2022-11-16T16:20:29.924Z,98389.81
2022-11-16T16:23:33.177Z,98383.03
2022-11-16T16:26:37.736Z,98375.22
2022-11-16T16:29:40.536Z,98372.91
2022-11-16T16:32:43.942Z,98370.94
2022-11-16T16:35:49.822Z,98367.75
2022-11-16T16:38:53.114Z,98368.09
2022-11-16T16:41:58.402Z,98373.06
2022-11-16T16:45:04.512Z,98372.25
2022-11-16T16:48:10.569Z,98371.94
2022-11-16T16:51:13.517Z,98363.63
2022-11-16T16:54:18.959Z,98357.47
2022-11-16T16:57:24.278Z,98353.31
2022-11-16T17:00:29.601Z,98358.28
2022-11-16T17:03:32.836Z,98357.31
2022-11-16T17:06:36.711Z,98353.00
2022-11-16T17:09:39.907Z,98352.84
2022-11-16T17:12:45.382Z,98348.69
2022-11-16T17:15:48.503Z,98356.31
2022-11-16T17:18:58.438Z,98342.69
2022-11-16T17:22:01.253Z,98341.00
2022-11-16T17:25:05.212Z,98348.66
2022-11-16T17:28:10.141Z,98344.00
2022-11-16T17:31:13.593Z,98344.34
2022-11-16T17:34:16.350Z,98339.00
2022-11-16T17:37:19.630Z,98335.81
2022-11-16T17:40:24.530Z,98333.16
2022-11-16T17:43:28.709Z,98336.19
2022-11-16T17:46:31.714Z,98343.16
2022-11-16T17:49:35.202Z,98337.00
2022-11-16T17:52:39.174Z,98338.19
2022-11-16T17:55:45.491Z,98331.00
2022-11-16T17:58:52.370Z,98327.84
2022-11-16T18:01:55.497Z,98330.66
2022-11-16T18:04:58.939Z,98335.66
2022-11-16T18:08:02.353Z,98329.03
2022-11-16T18:11:06.459Z,98332.31
2022-11-16T18:14:12.803Z,98333.50
2022-11-16T18:17:18.871Z,98323.03
2022-11-16T18:20:29.879Z,98328.66
2022-11-16T18:23:39.454Z,98327.69
2022-11-16T18:26:43.866Z,98322.06
2022-11-16T18:29:50.321Z,98322.53
2022-11-16T18:32:53.094Z,98321.19
2022-11-16T18:35:55.894Z,98318.53
2022-11-16T18:39:01.507Z,98315.75
2022-11-16T18:42:05.880Z,98321.22
2022-11-16T18:45:13.341Z,98312.72
2022-11-16T18:48:18.370Z,98312.38
2022-11-16T18:51:21.834Z,98310.56
2022-11-16T18:54:26.203Z,98304.75
2022-11-16T18:57:29.101Z,98295.94
2022-11-16T19:00:34.605Z,98294.78
2022-11-16T19:03:38.654Z,98298.59
2022-11-16T19:06:43.150Z,98295.75
2022-11-16T19:09:51.789Z,98289.44
2022-11-16T19:12:56.119Z,98296.13
2022-11-16T19:16:05.532Z,98291.94
2022-11-16T19:19:08.983Z,98288.81
2022-11-16T19:22:11.993Z,98292.78
2022-11-16T19:25:20.328Z,98287.63
2022-11-16T19:28:23.114Z,98287.47
2022-11-16T19:31:28.718Z,98283.47
2022-11-16T19:34:33.487Z,98277.47
2022-11-16T19:37:36.907Z,98276.81
2022-11-16T19:40:40.025Z,98266.34
2022-11-16T19:43:43.505Z,98274.47
2022-11-16T19:46:47.656Z,98259.53
2022-11-16T19:49:50.376Z,98261.53
2022-11-16T19:52:53.392Z,98254.72
2022-11-16T19:55:56.761Z,98267.19
2022-11-16T19:58:59.591Z,98254.72
2022-11-16T20:02:04.569Z,98253.03
2022-11-16T20:05:09.012Z,98253.19
2022-11-16T20:08:11.953Z,98259.88
2022-11-16T20:11:20.373Z,98254.03
2022-11-16T20:14:23.309Z,98251.38
2022-11-16T20:17:31.852Z,98257.72
2022-11-16T20:20:36.386Z,98247.22
2022-11-16T20:23:39.703Z,98254.53
2022-11-16T20:26:43.629Z,98247.22
2022-11-16T20:29:46.401Z,98243.41
2022-11-16T20:32:50.786Z,98244.53
2022-11-16T20:35:53.615Z,98239.91
2022-11-16T20:38:57.586Z,98237.72
2022-11-16T20:42:00.440Z,98236.91
2022-11-16T20:45:03.454Z,98232.22
2022-11-16T20:48:07.870Z,98227.91
2022-11-16T20:51:11.566Z,98237.72
2022-11-16T20:54:14.344Z,98225.09
2022-11-16T20:57:17.503Z,98224.59
2022-11-16T21:00:21.786Z,98221.59
2022-11-16T21:03:25.884Z,98214.59
2022-11-16T21:06:29.213Z,98216.63
2022-11-16T21:09:52.054Z,98207.81
2022-11-16T21:13:12.399Z,98206.16
2022-11-16T21:16:15.516Z,98210.28
2022-11-16T21:19:19.727Z,98199.47
2022-11-16T21:22:22.477Z,98201.31
2022-11-16T21:25:25.298Z,98202.97
2022-11-16T21:28:28.093Z,98198.63
2022-11-16T21:31:31.696Z,98199.63
2022-11-16T21:34:39.947Z,98193.97
2022-11-16T21:37:43.102Z,98192.66
2022-11-16T21:40:45.916Z,98188.81
2022-11-16T21:43:48.664Z,98193.81
2022-11-16T21:46:51.579Z,98193.44
2022-11-16T21:50:24.804Z,98183.59
2022-11-16T21:53:18.551Z,98182.09
2022-11-16T21:56:22.330Z,98181.88
2022-11-16T21:59:25.126Z,98173.19
2022-11-16T22:02:27.958Z,98179.63
2022-11-16T22:05:49.914Z,98172.81
2022-11-16T22:08:52.755Z,98168.38
2022-11-16T22:11:55.557Z,98170.22
2022-11-16T22:14:58.512Z,98167.75
2022-11-16T22:18:02.632Z,98167.88
2022-11-16T22:21:08.304Z,98163.50
2022-11-16T22:24:11.093Z,98168.66
2022-11-16T22:27:15.343Z,98157.94
2022-11-16T22:30:18.100Z,98155.06
2022-11-16T22:33:20.898Z,98156.41
2022-11-16T22:36:25.100Z,98155.19
2022-11-16T22:39:27.873Z,98154.19
2022-11-16T22:42:30.696Z,98152.84
2022-11-16T22:45:34.540Z,98157.81
2022-11-16T22:48:38.140Z,98145.97
2022-11-16T22:51:42.454Z,98144.47
2022-11-16T22:54:45.187Z,98135.53
2022-11-16T22:57:48.008Z,98127.91
2022-11-16T23:00:52.572Z,98121.94
2022-11-16T23:03:55.470Z,98115.91
2022-11-16T23:07:00.509Z,98111.41
2022-11-16T23:10:03.337Z,98105.31
2022-11-16T23:13:23.824Z,98110.66
2022-11-16T23:16:26.628Z,98112.69
2022-11-16T23:19:46.837Z,98111.72
2022-11-16T23:23:08.616Z,98108.75
2022-11-16T23:26:31.644Z,98108.56
2022-11-16T23:29:34.553Z,98107.94
2022-11-16T23:32:37.321Z,98099.44
2022-11-16T23:35:40.108Z,98104.63
2022-11-16T23:38:44.253Z,98098.47
2022-11-16T23:42:04.415Z,98095.63
2022-11-16T23:45:07.588Z,98088.97
2022-11-16T23:48:11.471Z,98088.16
2022-11-16T23:51:14.332Z,98082.81
2022-11-16T23:54:18.480Z,98070.88
2022-11-16T23:57:21.318Z,98077.19
